Time;durP1;ratioP1;P1;durP2;ratioP2;P2;SDS_P1;SDS_P2;PMS_P1;PMS_P2;Temp;Humidity;BMP_temperature;BMP_pressure;BME280_temperature;BME280_humidity;BME280_pressure;Samples;Min_cycle;Max_cycle;Signal;HPM_P1;HPM_P2
2022/10/11 00:01:50;;;;;;;;;2.33;0.00;;;;;14.33;66.03;101737.03;5034366;28;45412;-61
2022/10/11 00:04:15;;;;;;;;;6.33;1.00;;;;;14.31;65.95;101733.53;5018540;28;45613;-60
2022/10/11 00:06:42;;;;;;;;;3.67;1.00;;;;;14.26;65.83;101738.28;5023539;28;45332;-60
2022/10/11 00:09:10;;;;;;;;;1.00;1.00;;;;;14.27;65.73;101737.31;5016831;28;45398;-60
2022/10/11 00:11:36;;;;;;;;;2.67;1.00;;;;;14.25;65.69;101747.25;5031255;28;47120;-59
2022/10/11 00:14:02;;;;;;;;;2.67;1.00;;;;;14.18;65.80;101736.84;5025464;28;45356;-61
2022/10/11 00:16:27;;;;;;;;;1.00;1.00;;;;;14.21;65.74;101746.56;5016710;28;45406;-60
2022/10/11 00:18:53;;;;;;;;;3.00;1.00;;;;;14.20;65.41;101750.19;5016362;28;45447;-62
2022/10/11 00:21:20;;;;;;;;;2.33;1.00;;;;;14.18;65.99;101758.25;5032586;28;46009;-58
2022/10/11 00:23:46;;;;;;;;;2.00;2.00;;;;;14.14;65.46;101756.69;5021564;28;45453;-61
2022/10/11 00:26:11;;;;;;;;;2.00;2.00;;;;;14.13;65.56;101754.97;5024138;28;45386;-61
2022/10/11 00:28:37;;;;;;;;;1.00;1.00;;;;;14.15;65.77;101754.88;5036238;28;45359;-59
2022/10/11 00:31:10;;;;;;;;;3.00;2.00;;;;;14.09;65.78;101761.44;5036195;28;45349;-59
2022/10/11 00:33:36;;;;;;;;;4.00;1.67;;;;;14.06;65.62;101741.97;5035797;28;45474;-59
2022/10/11 00:36:02;;;;;;;;;1.00;1.00;;;;;14.02;65.64;101751.13;5032113;28;45503;-60
2022/10/11 00:38:28;;;;;;;;;1.33;1.33;;;;;14.03;65.82;101759.06;5030110;28;45323;-60
2022/10/11 00:40:53;;;;;;;;;4.33;1.67;;;;;13.98;65.43;101766.47;5021468;28;45366;-58
2022/10/11 00:43:23;;;;;;;;;2.33;1.00;;;;;13.94;65.33;101770.25;5026365;28;45498;-57
2022/10/11 00:45:54;;;;;;;;;1.67;1.67;;;;;13.96;65.57;101773.72;5035975;28;45226;-57
2022/10/11 00:48:29;;;;;;;;;2.67;1.33;;;;;13.95;65.64;101768.44;5027061;28;45471;-60
2022/10/11 00:50:58;;;;;;;;;3.00;2.00;;;;;13.94;65.56;101775.63;5035078;28;46284;-59
2022/10/11 00:53:27;;;;;;;;;3.00;1.00;;;;;13.91;65.50;101764.19;5022469;28;45396;-60
2022/10/11 00:56:00;;;;;;;;;3.00;2.00;;;;;13.90;64.99;101771.34;5033231;28;45505;-61
2022/10/11 00:58:25;;;;;;;;;2.00;1.00;;;;;13.92;65.15;101771.25;5013717;28;45448;-60
2022/10/11 01:00:52;;;;;;;;;2.67;1.00;;;;;13.92;65.10;101764.09;5021373;28;45493;-60
2022/10/11 01:03:20;;;;;;;;;3.33;2.00;;;;;13.90;64.38;101763.31;5017661;28;45544;-61
2022/10/11 01:05:46;;;;;;;;;2.00;2.00;;;;;13.85;64.82;101765.38;5015517;28;45287;-61
2022/10/11 01:08:11;;;;;;;;;0.00;0.00;;;;;13.79;64.62;101769.22;5016470;28;45613;-60
2022/10/11 01:10:37;;;;;;;;;2.00;2.00;;;;;13.79;64.66;101768.34;5025900;28;45913;-58
2022/10/11 01:13:50;;;;;;;;;5.00;2.00;;;;;13.74;64.92;101778.41;5035524;28;45222;-60
2022/10/11 01:16:57;;;;;;;;;5.00;2.00;;;;;13.68;65.17;101778.75;5018114;28;45564;-61
2022/10/11 01:19:39;;;;;;;;;2.33;1.00;;;;;13.64;64.77;101770.00;5013315;28;45366;-60
2022/10/11 01:22:22;;;;;;;;;1.33;1.33;;;;;13.56;65.13;101767.72;5019367;28;46282;-60
2022/10/11 01:24:56;;;;;;;;;5.00;2.00;;;;;13.49;64.70;101768.09;5014393;28;45547;-61
2022/10/11 01:27:38;;;;;;;;;3.33;2.00;;;;;13.47;64.98;101764.63;5026413;28;45393;-60
2022/10/11 01:30:33;;;;;;;;;4.67;1.00;;;;;13.51;64.92;101771.53;5054260;28;45339;-61
2022/10/11 01:33:04;;;;;;;;;0.67;0.67;;;;;13.50;64.48;101762.66;5023133;28;47756;-59
2022/10/11 01:35:44;;;;;;;;;1.00;1.00;;;;;13.55;64.67;101768.66;5038366;28;45489;-59
2022/10/11 01:38:22;;;;;;;;;3.00;2.00;;;;;13.55;64.09;101771.34;5032738;28;45462;-61
2022/10/11 01:41:02;;;;;;;;;3.00;2.00;;;;;13.48;64.19;101767.22;5033973;28;45336;-61
2022/10/11 01:43:28;;;;;;;;;4.00;2.00;;;;;13.38;64.74;101765.94;5036971;28;46409;-59
2022/10/11 01:45:56;;;;;;;;;1.00;1.00;;;;;13.35;64.39;101765.22;5019383;28;45513;-61
2022/10/11 01:48:22;;;;;;;;;2.00;2.00;;;;;13.31;64.85;101775.19;5018314;28;45422;-60
2022/10/11 01:50:50;;;;;;;;;3.33;1.00;;;;;13.27;64.53;101769.13;5018302;28;45557;-59
2022/10/11 01:53:37;;;;;;;;;1.67;1.67;;;;;13.22;65.12;101770.28;5018316;28;45363;-58
2022/10/11 01:56:30;;;;;;;;;3.00;2.00;;;;;13.17;64.67;101767.81;5018289;28;45263;-58
2022/10/11 01:58:56;;;;;;;;;3.00;1.00;;;;;13.19;64.82;101774.00;5033889;28;45550;-57
2022/10/11 02:01:40;;;;;;;;;1.00;1.00;;;;;13.11;65.04;101768.09;5032884;28;45496;-58
2022/10/11 02:04:16;;;;;;;;;0.00;0.00;;;;;13.05;65.05;101773.75;5023671;28;45332;-56
2022/10/11 02:07:00;;;;;;;;;2.67;1.00;;;;;13.08;64.70;101768.25;5020227;28;45384;-57
2022/10/11 02:09:30;;;;;;;;;1.00;1.00;;;;;13.02;64.81;101760.56;4998302;28;45770;-58
2022/10/11 02:12:03;;;;;;;;;2.33;2.33;;;;;12.96;65.43;101764.38;4998326;28;45454;-58
2022/10/11 02:14:33;;;;;;;;;3.67;1.00;;;;;12.94;64.87;101760.03;5018930;28;47131;-58
2022/10/11 02:17:06;;;;;;;;;3.33;1.00;;;;;12.96;64.80;101767.03;5005672;28;45444;-60
2022/10/11 02:19:40;;;;;;;;;1.33;1.00;;;;;12.90;65.03;101767.34;5017742;28;45367;-57
2022/10/11 02:22:16;;;;;;;;;1.00;0.00;;;;;12.94;64.91;101774.25;5017646;28;45625;-58
2022/10/11 02:24:48;;;;;;;;;3.00;3.00;;;;;12.91;65.17;101744.19;5017849;28;46835;-58
2022/10/11 02:27:18;;;;;;;;;1.00;1.00;;;;;13.02;64.44;101757.88;5016842;28;45304;-59
2022/10/11 02:29:45;;;;;;;;;1.00;1.00;;;;;13.05;64.65;101763.06;5018053;28;45439;-60
2022/10/11 02:32:13;;;;;;;;;2.33;1.00;;;;;13.05;64.58;101762.22;5018261;28;45456;-59
2022/10/11 02:34:45;;;;;;;;;4.00;1.33;;;;;13.08;64.51;101765.59;5037861;28;45381;-60
2022/10/11 02:37:17;;;;;;;;;0.00;0.00;;;;;13.10;64.46;101763.69;5018526;28;45556;-59
2022/10/11 02:39:57;;;;;;;;;2.00;0.67;;;;;13.00;64.41;101762.41;5018367;28;45499;-61
2022/10/11 02:42:32;;;;;;;;;1.00;1.00;;;;;13.08;64.56;101773.59;5016780;28;45213;-61
2022/10/11 02:45:15;;;;;;;;;2.00;2.00;;;;;13.11;63.94;101767.25;5017283;28;46204;-59
2022/10/11 02:47:42;;;;;;;;;3.00;1.00;;;;;13.14;63.60;101767.09;5025515;28;45402;-58
2022/10/11 02:50:10;;;;;;;;;2.33;1.00;;;;;13.15;64.01;101764.38;5036493;28;45352;-61
2022/10/11 02:52:36;;;;;;;;;1.67;0.00;;;;;13.09;63.66;101764.66;5029457;28;45598;-59
2022/10/11 02:55:01;;;;;;;;;1.00;1.00;;;;;13.10;63.46;101771.72;5017496;28;46083;-60
2022/10/11 02:57:26;;;;;;;;;3.00;1.00;;;;;13.15;63.47;101768.81;5016913;28;45410;-58
2022/10/11 02:59:52;;;;;;;;;2.33;1.00;;;;;13.15;63.23;101769.72;5017405;28;45458;-57
2022/10/11 03:02:17;;;;;;;;;1.00;1.00;;;;;13.18;63.18;101771.38;5016192;28;45633;-58
2022/10/11 03:04:43;;;;;;;;;1.00;1.00;;;;;13.17;63.42;101772.31;5029598;28;46443;-57
2022/10/11 03:07:08;;;;;;;;;1.00;1.00;;;;;13.18;63.94;101774.03;5037510;28;45408;-59
2022/10/11 03:09:33;;;;;;;;;0.67;0.33;;;;;13.16;63.36;101774.13;5029460;28;45525;-59
2022/10/11 03:11:59;;;;;;;;;1.00;1.00;;;;;13.17;63.31;101775.84;5017408;28;45576;-57
2022/10/11 03:14:24;;;;;;;;;5.33;1.67;;;;;13.16;63.05;101781.25;5015290;28;47090;-58
2022/10/11 03:16:49;;;;;;;;;1.33;1.33;;;;;13.17;63.17;101783.84;5016612;28;45339;-59
2022/10/11 03:19:15;;;;;;;;;1.00;1.00;;;;;13.16;63.00;101775.91;5016649;28;45326;-57
2022/10/11 03:21:40;;;;;;;;;2.00;1.00;;;;;13.16;63.03;101783.94;5031033;28;45424;-58
2022/10/11 03:24:06;;;;;;;;;1.00;1.00;;;;;13.17;63.20;101786.53;5019629;28;46515;-57
2022/10/11 03:26:31;;;;;;;;;3.00;2.00;;;;;13.19;62.58;101791.81;5018826;28;45374;-60
2022/10/11 03:28:56;;;;;;;;;2.00;1.00;;;;;13.20;62.46;101790.88;5016614;28;45435;-58
2022/10/11 03:31:22;;;;;;;;;4.00;3.00;;;;;13.23;62.50;101793.41;5016748;28;45277;-58
2022/10/11 03:33:48;;;;;;;;;2.33;1.00;;;;;13.26;62.44;101790.56;5016848;28;45425;-57
2022/10/11 03:36:15;;;;;;;;;2.67;2.00;;;;;13.25;62.12;101794.19;5024950;28;45791;-57
2022/10/11 03:38:41;;;;;;;;;2.67;1.00;;;;;13.22;62.54;101797.88;5026910;28;45492;-57
2022/10/11 03:41:06;;;;;;;;;2.33;2.33;;;;;13.22;61.98;101797.00;5016795;28;45545;-57
2022/10/11 03:43:32;;;;;;;;;0.00;0.00;;;;;13.20;62.68;101790.88;5030816;28;46167;-56
2022/10/11 03:45:57;;;;;;;;;6.67;1.00;;;;;13.20;62.18;101798.91;5016739;28;45264;-58
2022/10/11 03:48:22;;;;;;;;;3.00;2.00;;;;;13.15;62.49;101785.75;5016529;28;45346;-57
2022/10/11 03:50:48;;;;;;;;;2.67;1.00;;;;;13.20;62.36;101793.56;5016333;28;45490;-58
2022/10/11 03:53:14;;;;;;;;;1.00;1.00;;;;;13.13;62.30;101797.41;5031904;28;46236;-58
2022/10/11 03:55:40;;;;;;;;;1.00;1.00;;;;;13.06;62.01;101806.66;5036278;28;45410;-61
2022/10/11 03:58:06;;;;;;;;;1.33;0.00;;;;;12.95;62.30;101794.69;5036782;28;45540;-58
2022/10/11 04:00:32;;;;;;;;;1.67;1.67;;;;;12.92;62.71;101804.66;5029297;28;45334;-58
2022/10/11 04:02:58;;;;;;;;;5.00;1.00;;;;;12.91;62.43;101803.78;5016859;28;45332;-58
2022/10/11 04:05:23;;;;;;;;;1.00;1.00;;;;;12.87;62.48;101810.19;5016045;28;45509;-59
2022/10/11 04:07:49;;;;;;;;;1.00;1.00;;;;;12.83;63.27;101805.94;4995042;28;45341;-56
2022/10/11 04:10:15;;;;;;;;;1.00;1.00;;;;;12.83;62.75;101803.25;4997155;28;45506;-58
2022/10/11 04:12:40;;;;;;;;;1.67;1.67;;;;;12.76;63.18;101804.50;4996148;28;46390;-59
2022/10/11 04:15:06;;;;;;;;;1.00;1.00;;;;;12.75;63.33;101808.06;5008587;28;45368;-56
2022/10/11 04:17:31;;;;;;;;;2.33;0.67;;;;;12.69;63.11;101817.22;5016237;28;45351;-57
2022/10/11 04:19:57;;;;;;;;;1.00;1.00;;;;;12.65;62.94;101814.78;5018248;28;45276;-57
2022/10/11 04:22:22;;;;;;;;;2.00;1.00;;;;;12.63;63.46;101808.63;5017619;28;56452;-58
2022/10/11 04:24:48;;;;;;;;;3.00;1.00;;;;;12.51;63.26;101804.72;5017683;28;45424;-59
2022/10/11 04:27:13;;;;;;;;;1.67;1.33;;;;;12.54;63.48;101817.06;5019829;28;45499;-57
2022/10/11 04:29:39;;;;;;;;;2.67;2.00;;;;;12.53;63.46;101829.53;4996987;28;45372;-59
2022/10/11 04:32:04;;;;;;;;;1.67;1.67;;;;;12.52;63.61;101821.59;5015150;28;45988;-57
2022/10/11 04:34:30;;;;;;;;;2.00;1.00;;;;;12.51;63.60;101819.88;5015494;28;45332;-57
2022/10/11 04:36:55;;;;;;;;;1.33;1.00;;;;;12.48;63.43;101831.53;5014354;28;45459;-57
2022/10/11 04:39:21;;;;;;;;;2.00;1.00;;;;;12.36;63.57;101811.59;5015921;28;45681;-57
2022/10/11 04:41:46;;;;;;;;;2.33;2.00;;;;;12.39;63.67;101822.16;5026263;28;46186;-58
2022/10/11 04:44:12;;;;;;;;;4.00;2.33;;;;;12.37;63.87;101823.16;5015423;28;45341;-56
2022/10/11 04:46:37;;;;;;;;;0.67;0.67;;;;;12.30;64.09;101817.22;5016280;28;45339;-58
2022/10/11 04:49:02;;;;;;;;;2.00;2.00;;;;;12.30;63.68;101817.22;5018183;28;45526;-59
2022/10/11 04:51:28;;;;;;;;;4.00;2.00;;;;;12.27;63.88;101812.00;5015617;28;45331;-58
2022/10/11 04:53:53;;;;;;;;;1.00;1.00;;;;;12.21;63.80;101809.59;5014679;28;45391;-58
2022/10/11 04:56:19;;;;;;;;;3.33;2.00;;;;;12.26;63.82;101820.09;5019438;28;45333;-58
2022/10/11 04:58:46;;;;;;;;;2.00;2.00;;;;;12.22;64.08;101823.81;5034951;28;45268;-59
2022/10/11 05:01:12;;;;;;;;;4.00;1.00;;;;;12.21;64.17;101822.06;5033857;28;45638;-58
2022/10/11 05:03:38;;;;;;;;;1.33;0.67;;;;;12.17;64.38;101821.34;5039023;28;45329;-57
2022/10/11 05:06:04;;;;;;;;;3.00;1.33;;;;;12.18;64.22;101827.53;5039454;28;45288;-59
2022/10/11 05:08:29;;;;;;;;;1.00;1.00;;;;;12.18;64.32;101823.06;5031951;28;45458;-57
2022/10/11 05:11:04;;;;;;;;;1.00;1.00;;;;;12.16;64.14;101819.63;5020810;28;45944;-59
2022/10/11 05:13:31;;;;;;;;;9.67;3.00;;;;;12.13;64.47;101822.41;5018233;28;45422;-55
2022/10/11 05:15:57;;;;;;;;;3.67;2.33;;;;;12.10;64.17;101815.38;5023630;28;45361;-57
2022/10/11 05:18:22;;;;;;;;;2.33;1.00;;;;;12.10;64.45;101827.84;5029992;28;45396;-57
2022/10/11 05:20:49;;;;;;;;;1.00;1.00;;;;;12.09;63.84;101829.66;5022470;28;46056;-56
2022/10/11 05:23:14;;;;;;;;;3.00;1.67;;;;;12.10;63.90;101825.19;5020372;28;45462;-58
2022/10/11 05:25:40;;;;;;;;;2.00;2.00;;;;;12.04;63.88;101815.66;5018755;28;45174;-58
2022/10/11 05:28:06;;;;;;;;;3.33;2.00;;;;;12.09;63.68;101832.31;5020565;28;45568;-58
2022/10/11 05:30:31;;;;;;;;;1.00;1.00;;;;;12.07;63.82;101823.53;5008560;28;45368;-58
2022/10/11 05:32:57;;;;;;;;;2.67;1.67;;;;;12.03;63.78;101824.59;5021866;28;45427;-58
2022/10/11 05:35:23;;;;;;;;;2.00;2.00;;;;;12.04;63.63;101822.81;5016237;28;45621;-57
2022/10/11 05:37:48;;;;;;;;;4.67;1.00;;;;;12.01;63.80;101821.13;5027062;28;45679;-58
2022/10/11 05:40:13;;;;;;;;;3.00;1.67;;;;;12.02;63.65;101827.34;5032593;28;45327;-58
2022/10/11 05:42:39;;;;;;;;;7.75;3.00;;;;;12.02;63.30;101814.00;5023755;28;45371;-57
2022/10/11 05:45:05;;;;;;;;;3.00;1.00;;;;;12.01;63.41;101822.94;5033751;28;45469;-59
2022/10/11 05:47:31;;;;;;;;;3.00;2.00;;;;;11.99;63.56;101827.47;5033885;28;45680;-61
2022/10/11 05:49:57;;;;;;;;;6.00;2.00;;;;;11.90;63.39;101806.53;5047472;28;46722;-62
2022/10/11 05:52:22;;;;;;;;;2.67;1.00;;;;;11.97;63.46;101818.66;5016680;28;45256;-57
2022/10/11 05:54:48;;;;;;;;;6.33;3.00;;;;;11.93;63.31;101817.06;5022252;28;45325;-62
2022/10/11 05:57:14;;;;;;;;;3.00;3.00;;;;;11.86;63.86;101815.59;5029116;28;45251;-60
2022/10/11 05:59:39;;;;;;;;;1.00;1.00;;;;;11.88;64.14;101830.59;5023386;28;46088;-62
2022/10/11 06:02:05;;;;;;;;;3.00;3.00;;;;;11.87;63.97;101830.66;5018528;28;45384;-60
2022/10/11 06:04:30;;;;;;;;;4.00;2.67;;;;;11.88;64.28;101835.91;5026708;28;45581;-61
2022/10/11 06:06:56;;;;;;;;;7.00;3.00;;;;;11.87;64.13;101827.97;5000180;28;45431;-60
2022/10/11 06:09:21;;;;;;;;;2.33;2.00;;;;;11.86;63.92;101826.25;5011330;28;46853;-58
2022/10/11 06:11:47;;;;;;;;;2.00;2.00;;;;;11.84;64.31;101828.09;5035710;28;45336;-58
2022/10/11 06:14:12;;;;;;;;;2.00;1.00;;;;;11.75;63.82;101819.53;5024834;28;45442;-57
2022/10/11 06:16:38;;;;;;;;;5.25;1.00;;;;;11.81;64.04;101835.28;5031610;28;45395;-61
2022/10/11 06:19:04;;;;;;;;;2.00;2.00;;;;;11.80;63.92;101844.22;5019909;28;45574;-59
2022/10/11 06:21:30;;;;;;;;;3.67;3.67;;;;;11.71;63.77;101827.69;5031376;28;45459;-57
2022/10/11 06:23:55;;;;;;;;;9.50;2.75;;;;;11.78;63.76;101838.06;5037283;28;45457;-62
2022/10/11 06:26:21;;;;;;;;;8.50;4.00;;;;;11.77;64.00;101848.78;5032754;28;45391;-59
2022/10/11 06:28:46;;;;;;;;;3.00;2.50;;;;;11.78;64.00;101855.84;5018420;28;45976;-62
2022/10/11 06:31:12;;;;;;;;;3.25;2.00;;;;;11.76;63.95;101849.72;5019890;28;45229;-56
2022/10/11 06:33:38;;;;;;;;;4.67;2.00;;;;;11.74;63.88;101855.09;5018039;28;45655;-57
2022/10/11 06:36:08;;;;;;;;;5.33;3.00;;;;;11.75;64.16;101862.16;5033109;28;45292;-58
2022/10/11 06:38:39;;;;;;;;;2.00;2.00;;;;;11.72;64.22;101864.97;5018038;28;46034;-62
2022/10/11 06:41:17;;;;;;;;;3.00;3.00;;;;;11.72;64.25;101864.97;5015244;28;45671;-59
2022/10/11 06:43:44;;;;;;;;;3.67;1.00;;;;;11.76;64.40;101863.03;4998001;28;45522;-59
2022/10/11 06:46:10;;;;;;;;;4.00;4.00;;;;;11.75;64.39;101862.16;4998432;28;45451;-59
2022/10/11 06:48:43;;;;;;;;;2.33;2.33;;;;;11.75;64.16;101858.63;5002001;28;45431;-60
2022/10/11 06:51:12;;;;;;;;;4.00;4.00;;;;;11.77;63.85;101865.63;5037502;28;45503;-58
2022/10/11 06:53:39;;;;;;;;;4.00;2.33;;;;;11.65;64.29;101847.47;5027321;28;45276;-56
2022/10/11 06:56:11;;;;;;;;;18.25;12.25;;;;;11.74;64.21;101855.09;5020546;28;45443;-61
2022/10/11 06:58:38;;;;;;;;;7.33;2.00;;;;;11.83;63.84;101875.19;5019990;28;46136;-59
2022/10/11 07:01:10;;;;;;;;;5.00;2.00;;;;;11.75;64.02;101862.16;5017014;28;45348;-61
2022/10/11 07:03:39;;;;;;;;;3.00;3.00;;;;;11.80;64.30;101868.19;5017072;28;45377;-59
2022/10/11 07:06:10;;;;;;;;;5.50;3.00;;;;;11.79;64.35;101866.47;5025584;28;45287;-58
2022/10/11 07:08:39;;;;;;;;;4.75;3.75;;;;;11.84;63.81;101870.72;5016655;28;45486;-58
2022/10/11 07:11:14;;;;;;;;;3.00;3.00;;;;;11.82;63.90;101871.66;5014598;28;45503;-60
2022/10/11 07:13:48;;;;;;;;;1.00;1.00;;;;;11.86;63.02;101874.22;5016138;28;45882;-59
2022/10/11 07:16:16;;;;;;;;;4.00;4.00;;;;;11.89;63.25;101879.44;5017217;28;45252;-59
2022/10/11 07:18:45;;;;;;;;;3.50;2.50;;;;;11.79;63.02;101869.13;5017585;28;45803;-61
2022/10/11 07:21:15;;;;;;;;;5.50;3.75;;;;;11.86;62.89;101880.44;5027081;28;45430;-58
2022/10/11 07:23:47;;;;;;;;;5.50;2.50;;;;;11.86;62.77;101883.09;5036884;28;45497;-58
2022/10/11 07:26:13;;;;;;;;;6.50;6.50;;;;;11.88;62.84;101883.91;5037990;28;45548;-57
2022/10/11 07:28:39;;;;;;;;;2.00;2.00;;;;;11.91;62.78;101880.22;5038087;28;45232;-59
2022/10/11 07:31:12;;;;;;;;;7.00;2.00;;;;;11.93;62.51;101886.38;5038376;28;45253;-59
2022/10/11 07:33:38;;;;;;;;;5.50;3.00;;;;;11.98;61.94;101895.03;5038798;28;45286;-59
2022/10/11 07:36:04;;;;;;;;;6.00;6.00;;;;;11.98;61.99;101895.03;5037442;28;45568;-58
2022/10/11 07:38:33;;;;;;;;;3.25;3.25;;;;;12.02;61.71;101904.66;5020516;28;45347;-62
2022/10/11 07:40:58;;;;;;;;;4.50;4.50;;;;;12.04;61.79;101905.47;5016604;28;45437;-59
2022/10/11 07:43:24;;;;;;;;;5.50;3.00;;;;;12.05;61.53;101899.19;5017349;28;45351;-59
2022/10/11 07:45:55;;;;;;;;;4.00;4.00;;;;;12.10;61.59;101907.84;5017207;28;45566;-61
2022/10/11 07:48:21;;;;;;;;;5.50;4.00;;;;;12.13;61.42;101910.41;5015583;28;46196;-60
2022/10/11 07:50:47;;;;;;;;;8.25;6.50;;;;;12.07;61.63;101890.19;5015610;28;45383;-58
2022/10/11 07:53:13;;;;;;;;;5.75;3.75;;;;;12.16;61.66;101920.94;5017245;28;45350;-60
2022/10/11 07:55:39;;;;;;;;;7.00;7.00;;;;;12.17;61.34;101916.47;5025614;28;45659;-59
2022/10/11 07:58:08;;;;;;;;;9.00;7.00;;;;;11.82;62.01;101868.13;5036829;28;45559;-61
2022/10/11 08:00:34;;;;;;;;;8.75;7.25;;;;;12.05;61.43;101907.19;5036986;28;45484;-61
2022/10/11 08:03:06;;;;;;;;;10.50;8.50;;;;;12.10;61.71;101922.06;5036508;28;45423;-59
2022/10/11 08:05:33;;;;;;;;;8.75;6.00;;;;;12.18;61.55;101927.09;5036611;28;45224;-58
2022/10/11 08:07:59;;;;;;;;;8.25;7.00;;;;;12.15;61.72;101929.03;5052127;28;45322;-60
2022/10/11 08:10:25;;;;;;;;;10.25;8.50;;;;;12.19;61.28;101928.81;5035158;28;45388;-60
2022/10/11 08:12:52;;;;;;;;;11.00;9.00;;;;;12.15;61.55;101924.56;5035123;28;45294;-59
2022/10/11 08:15:18;;;;;;;;;14.75;10.00;;;;;12.16;61.38;101926.28;5037343;28;45548;-60
2022/10/11 08:17:45;;;;;;;;;10.25;10.25;;;;;12.16;61.70;101936.97;5037358;28;46332;-58
2022/10/11 08:20:10;;;;;;;;;6.75;6.75;;;;;12.21;61.38;101934.94;5035041;28;45617;-58
2022/10/11 08:22:36;;;;;;;;;10.25;8.25;;;;;12.29;61.64;101927.50;5036249;28;45458;-60
2022/10/11 08:25:02;;;;;;;;;3.00;3.00;;;;;12.26;61.04;101922.31;5036717;28;45380;-58
2022/10/11 08:27:28;;;;;;;;;9.00;9.00;;;;;12.38;61.36;101928.94;5036482;28;46007;-58
2022/10/11 08:29:53;;;;;;;;;14.00;7.00;;;;;12.46;60.72;101940.13;5034393;28;45439;-62
2022/10/11 08:32:19;;;;;;;;;8.75;8.75;;;;;12.45;60.51;101941.06;5036775;28;45252;-60
2022/10/11 08:34:45;;;;;;;;;13.75;10.75;;;;;12.29;60.58;101915.97;5017023;28;45364;-58
2022/10/11 08:37:10;;;;;;;;;10.75;10.00;;;;;12.51;60.16;101937.28;5022850;28;45449;-58
2022/10/11 08:39:36;;;;;;;;;8.67;8.67;;;;;12.53;60.32;101941.63;5023096;28;45276;-62
2022/10/11 08:42:14;;;;;;;;;14.33;11.33;;;;;12.49;60.44;101925.78;5039129;28;45403;-58
2022/10/11 08:44:49;;;;;;;;;15.75;15.75;;;;;12.67;60.36;101938.34;5023346;28;45434;-59
2022/10/11 08:47:31;;;;;;;;;10.00;8.00;;;;;12.71;59.69;101942.63;5024834;28;46952;-60
2022/10/11 08:49:58;;;;;;;;;9.00;6.33;;;;;12.78;59.76;101946.78;5022662;28;45324;-59
2022/10/11 08:52:33;;;;;;;;;7.00;4.00;;;;;12.78;58.93;101935.22;5022694;28;45359;-59
2022/10/11 08:55:06;;;;;;;;;4.33;3.33;;;;;12.79;59.14;101929.81;5022556;28;45402;-61
2022/10/11 08:57:38;;;;;;;;;4.33;4.33;;;;;12.92;58.85;101944.34;5022876;28;45291;-60
2022/10/11 09:00:12;;;;;;;;;8.33;3.33;;;;;12.98;58.54;101944.06;5022244;28;45379;-62
2022/10/11 09:03:16;;;;;;;;;1.33;1.33;;;;;13.02;59.06;101941.25;5020932;28;45803;-61
2022/10/11 09:06:00;;;;;;;;;3.33;2.00;;;;;13.05;58.63;101933.13;5001697;28;45478;-60
2022/10/11 09:08:56;;;;;;;;;3.33;2.33;;;;;13.16;58.94;101949.53;5002336;28;46198;-60
2022/10/11 09:11:46;;;;;;;;;4.00;2.00;;;;;13.23;58.65;101943.88;5002810;28;45230;-60
2022/10/11 09:14:50;;;;;;;;;7.67;7.67;;;;;13.34;58.46;101940.72;5011718;28;45273;-59
2022/10/11 09:17:33;;;;;;;;;6.00;3.00;;;;;13.43;58.28;101945.63;5022610;28;45603;-59
2022/10/11 09:20:11;;;;;;;;;5.33;2.00;;;;;13.44;58.04;101942.03;5027579;28;45354;-56
2022/10/11 09:22:58;;;;;;;;;2.00;2.00;;;;;13.49;58.70;101939.13;5041985;28;45517;-61
2022/10/11 09:25:36;;;;;;;;;3.00;3.00;;;;;13.51;58.88;101932.75;5042430;28;45252;-59
2022/10/11 09:28:28;;;;;;;;;5.67;3.33;;;;;13.62;58.52;101939.41;5057840;28;45295;-57
2022/10/11 09:30:56;;;;;;;;;5.67;3.67;;;;;13.65;59.08;101939.25;5042017;28;45432;-61
2022/10/11 09:33:32;;;;;;;;;9.67;2.67;;;;;13.80;58.88;101941.19;5040538;28;45335;-58
2022/10/11 09:36:00;;;;;;;;;6.00;3.00;;;;;13.78;58.46;101929.72;5040580;27;45270;-60
2022/10/11 09:38:48;;;;;;;;;3.00;3.00;;;;;13.83;59.06;101925.91;5032443;27;45503;-59
2022/10/11 09:41:20;;;;;;;;;3.33;3.33;;;;;13.93;58.33;101934.31;5020944;28;46170;-61
2022/10/11 09:43:49;;;;;;;;;5.33;3.00;;;;;14.05;58.46;101928.38;5020686;28;45392;-58
2022/10/11 09:46:23;;;;;;;;;4.00;3.00;;;;;14.16;57.93;101936.72;5037368;28;45312;-59
2022/10/11 09:48:54;;;;;;;;;5.00;3.33;;;;;14.21;57.99;101933.84;5016677;28;45383;-57
2022/10/11 09:51:22;;;;;;;;;2.67;2.00;;;;;14.27;57.51;101917.47;5018431;28;45412;-59
2022/10/11 09:53:49;;;;;;;;;6.67;4.67;;;;;14.30;57.49;101916.44;5029512;28;45477;-58
2022/10/11 09:56:15;;;;;;;;;1.67;1.00;;;;;14.40;57.90;101917.72;5038102;28;45550;-58
2022/10/11 09:58:41;;;;;;;;;7.33;5.00;;;;;14.48;57.69;101920.91;5036960;28;45534;-60
2022/10/11 10:01:10;;;;;;;;;3.00;3.00;;;;;14.51;57.66;101919.88;5038073;28;45282;-59
2022/10/11 10:03:40;;;;;;;;;4.00;4.00;;;;;14.53;56.95;101912.63;5054266;28;45772;-57
2022/10/11 10:06:20;;;;;;;;;4.67;4.00;;;;;14.66;56.68;101921.75;5038832;28;45446;-61
2022/10/11 10:08:49;;;;;;;;;4.33;3.00;;;;;14.69;57.24;101914.44;5038016;28;45351;-58
2022/10/11 10:11:17;;;;;;;;;3.33;3.33;;;;;14.81;56.83;101917.41;5039147;28;46358;-60
2022/10/11 10:13:44;;;;;;;;;3.33;3.33;;;;;14.89;56.98;101921.44;5038968;28;45289;-60
2022/10/11 10:16:25;;;;;;;;;4.00;4.00;;;;;14.95;57.09;101925.59;5053886;28;45282;-58
2022/10/11 10:19:01;;;;;;;;;2.00;2.00;;;;;15.02;56.26;101924.31;5039114;28;45493;-62
2022/10/11 10:21:30;;;;;;;;;4.00;3.00;;;;;14.91;56.45;101913.31;5035364;28;45545;-58
2022/10/11 10:24:01;;;;;;;;;5.33;3.00;;;;;15.09;56.40;101920.34;5023161;28;45363;-61
2022/10/11 10:26:28;;;;;;;;;2.00;2.00;;;;;15.16;56.51;101913.72;5032900;28;45403;-59
2022/10/11 10:29:08;;;;;;;;;6.33;5.00;;;;;15.31;56.46;101918.25;5031654;28;45240;-59
2022/10/11 10:31:49;;;;;;;;;4.00;3.00;;;;;15.20;55.88;101883.13;5014813;28;46319;-63
2022/10/11 10:34:34;;;;;;;;;7.33;5.33;;;;;15.50;55.82;101915.44;5019168;28;45446;-67
2022/10/11 10:37:13;;;;;;;;;5.33;5.00;;;;;15.57;55.51;101915.94;5020617;28;45508;-61
2022/10/11 10:40:07;;;;;;;;;3.00;3.00;;;;;15.75;55.04;101906.88;5032858;27;45556;-56
2022/10/11 10:42:39;;;;;;;;;5.00;4.00;;;;;15.86;55.43;101911.63;5025396;28;45473;-67
2022/10/11 10:45:18;;;;;;;;;2.33;2.33;;;;;15.98;55.10;101907.38;5017857;28;45319;-61
2022/10/11 10:47:55;;;;;;;;;9.00;5.00;;;;;16.12;54.96;101910.13;5018137;28;45490;-60
2022/10/11 10:50:53;;;;;;;;;3.33;3.33;;;;;16.15;54.97;101899.25;5050319;28;45409;-62
2022/10/11 10:53:21;;;;;;;;;10.33;6.00;;;;;16.29;53.86;101907.34;5021841;28;45478;-58
2022/10/11 10:55:58;;;;;;;;;4.00;4.00;;;;;16.38;54.20;101897.84;5024114;28;45403;-59
2022/10/11 10:58:49;;;;;;;;;4.00;4.00;;;;;16.45;53.76;101894.72;5022453;28;45466;-61
2022/10/11 11:01:30;;;;;;;;;4.33;4.33;;;;;16.58;53.04;101885.94;5024156;28;45408;-60
2022/10/11 11:04:11;;;;;;;;;6.67;4.00;;;;;16.82;52.38;101900.59;5012353;28;46238;-62
2022/10/11 11:07:02;;;;;;;;;4.33;3.00;;;;;16.96;51.93;101891.69;5046226;28;45456;-58
2022/10/11 11:09:54;;;;;;;;;6.00;4.33;;;;;17.02;51.67;101896.66;5020478;28;45600;-62
2022/10/11 11:12:36;;;;;;;;;7.00;5.00;;;;;17.10;51.34;101884.47;5029207;28;45577;-61
2022/10/11 11:15:15;;;;;;;;;4.00;3.00;;;;;17.26;50.17;101894.25;5017520;28;46682;-60
2022/10/11 11:17:47;;;;;;;;;5.33;5.00;;;;;17.37;50.45;101889.94;5022953;28;45735;-61
2022/10/11 11:20:27;;;;;;;;;4.33;3.33;;;;;17.52;50.76;101885.38;5017233;28;45391;-59
2022/10/11 11:23:14;;;;;;;;;3.00;2.00;;;;;17.71;49.38;101895.88;5017333;28;45742;-61
2022/10/11 11:25:57;;;;;;;;;5.67;5.00;;;;;17.86;49.31;101888.59;5016384;28;45272;-57
2022/10/11 11:28:40;;;;;;;;;3.00;2.67;;;;;18.01;48.60;101892.09;5023424;28;46055;-59
2022/10/11 11:31:28;;;;;;;;;4.00;2.67;;;;;18.11;48.76;101886.00;5033860;28;45355;-62
2022/10/11 11:34:22;;;;;;;;;3.33;3.33;;;;;18.23;47.45;101882.50;5033871;28;45651;-63
2022/10/11 11:37:13;;;;;;;;;3.00;3.00;;;;;18.38;47.00;101879.72;5020497;28;46977;-58
2022/10/11 11:39:48;;;;;;;;;3.00;3.00;;;;;18.49;47.37;101874.44;5014192;28;45425;-61
2022/10/11 11:42:38;;;;;;;;;4.00;2.00;;;;;18.59;46.37;101878.22;5016817;28;45340;-62